sensor_id;sensor_type;location;lat;lon;timestamp;temperature;humidity
71039;SHT30;58692;43.212;27.908;2024-02-26T00:02:15;10.93;79.80
71039;SHT30;58692;43.212;27.908;2024-02-26T00:04:41;10.93;79.71
71039;SHT30;58692;43.212;27.908;2024-02-26T00:07:06;10.93;79.48
71039;SHT30;58692;43.212;27.908;2024-02-26T00:09:32;10.90;79.37
71039;SHT30;58692;43.212;27.908;2024-02-26T00:12:01;10.89;79.44
71039;SHT30;58692;43.212;27.908;2024-02-26T00:14:27;10.92;79.28
71039;SHT30;58692;43.212;27.908;2024-02-26T00:16:52;10.89;79.40
71039;SHT30;58692;43.212;27.908;2024-02-26T00:19:18;10.84;79.50
71039;SHT30;58692;43.212;27.908;2024-02-26T00:21:43;10.83;79.57
71039;SHT30;58692;43.212;27.908;2024-02-26T00:24:09;10.86;79.51
71039;SHT30;58692;43.212;27.908;2024-02-26T00:26:35;10.83;79.64
71039;SHT30;58692;43.212;27.908;2024-02-26T00:29:00;10.74;79.80
71039;SHT30;58692;43.212;27.908;2024-02-26T00:31:26;10.76;79.71
71039;SHT30;58692;43.212;27.908;2024-02-26T00:33:51;10.74;79.82
71039;SHT30;58692;43.212;27.908;2024-02-26T00:36:17;10.70;80.00
71039;SHT30;58692;43.212;27.908;2024-02-26T00:38:44;10.73;79.91
71039;SHT30;58692;43.212;27.908;2024-02-26T00:41:11;10.73;79.87
71039;SHT30;58692;43.212;27.908;2024-02-26T00:43:37;10.74;79.91
71039;SHT30;58692;43.212;27.908;2024-02-26T00:46:04;10.76;79.84
71039;SHT30;58692;43.212;27.908;2024-02-26T00:48:30;10.72;79.94
71039;SHT30;58692;43.212;27.908;2024-02-26T00:50:55;10.73;80.03
71039;SHT30;58692;43.212;27.908;2024-02-26T00:53:21;10.69;79.95
71039;SHT30;58692;43.212;27.908;2024-02-26T00:55:47;10.69;80.06
71039;SHT30;58692;43.212;27.908;2024-02-26T00:58:13;10.69;80.05
71039;SHT30;58692;43.212;27.908;2024-02-26T01:00:38;10.67;80.07
71039;SHT30;58692;43.212;27.908;2024-02-26T01:03:04;10.72;80.08
71039;SHT30;58692;43.212;27.908;2024-02-26T01:05:30;10.76;79.89
71039;SHT30;58692;43.212;27.908;2024-02-26T01:07:56;10.76;79.82
71039;SHT30;58692;43.212;27.908;2024-02-26T01:10:21;10.77;79.94
71039;SHT30;58692;43.212;27.908;2024-02-26T01:12:47;10.67;80.30
71039;SHT30;58692;43.212;27.908;2024-02-26T01:15:13;10.66;80.41
71039;SHT30;58692;43.212;27.908;2024-02-26T01:17:38;10.65;80.64
71039;SHT30;58692;43.212;27.908;2024-02-26T01:20:05;10.62;80.83
71039;SHT30;58692;43.212;27.908;2024-02-26T01:22:30;10.62;80.92
71039;SHT30;58692;43.212;27.908;2024-02-26T01:24:56;10.55;81.22
71039;SHT30;58692;43.212;27.908;2024-02-26T01:27:22;10.57;81.32
71039;SHT30;58692;43.212;27.908;2024-02-26T01:29:52;10.53;81.40
71039;SHT30;58692;43.212;27.908;2024-02-26T01:32:17;10.55;81.62
71039;SHT30;58692;43.212;27.908;2024-02-26T01:34:43;10.53;81.69
71039;SHT30;58692;43.212;27.908;2024-02-26T01:37:08;10.52;81.90
71039;SHT30;58692;43.212;27.908;2024-02-26T01:39:34;10.52;81.89
71039;SHT30;58692;43.212;27.908;2024-02-26T01:42:00;10.45;82.09
71039;SHT30;58692;43.212;27.908;2024-02-26T01:44:26;10.43;82.25
71039;SHT30;58692;43.212;27.908;2024-02-26T01:46:52;10.38;82.53
71039;SHT30;58692;43.212;27.908;2024-02-26T01:49:18;10.39;82.57
71039;SHT30;58692;43.212;27.908;2024-02-26T01:51:45;10.36;82.72
71039;SHT30;58692;43.212;27.908;2024-02-26T01:54:11;10.36;82.72
71039;SHT30;58692;43.212;27.908;2024-02-26T01:56:37;10.26;83.25
71039;SHT30;58692;43.212;27.908;2024-02-26T01:59:05;10.15;83.87
71039;SHT30;58692;43.212;27.908;2024-02-26T02:01:32;10.09;84.75
71039;SHT30;58692;43.212;27.908;2024-02-26T02:03:59;10.18;84.95
71039;SHT30;58692;43.212;27.908;2024-02-26T02:06:26;10.13;85.33
71039;SHT30;58692;43.212;27.908;2024-02-26T02:08:54;10.11;85.90
71039;SHT30;58692;43.212;27.908;2024-02-26T02:11:20;10.16;85.82
71039;SHT30;58692;43.212;27.908;2024-02-26T02:13:46;10.18;85.90
71039;SHT30;58692;43.212;27.908;2024-02-26T02:16:12;10.15;85.97
71039;SHT30;58692;43.212;27.908;2024-02-26T02:18:37;10.19;85.89
71039;SHT30;58692;43.212;27.908;2024-02-26T02:21:03;10.16;85.80
71039;SHT30;58692;43.212;27.908;2024-02-26T02:23:29;10.13;85.80
71039;SHT30;58692;43.212;27.908;2024-02-26T02:25:56;10.16;85.78
71039;SHT30;58692;43.212;27.908;2024-02-26T02:28:23;10.19;85.44
71039;SHT30;58692;43.212;27.908;2024-02-26T02:30:50;10.18;85.44
71039;SHT30;58692;43.212;27.908;2024-02-26T02:33:17;10.18;85.37
71039;SHT30;58692;43.212;27.908;2024-02-26T02:35:43;10.16;85.44
71039;SHT30;58692;43.212;27.908;2024-02-26T02:38:08;10.23;85.27
71039;SHT30;58692;43.212;27.908;2024-02-26T02:40:34;10.29;84.94
71039;SHT30;58692;43.212;27.908;2024-02-26T02:43:00;10.28;84.79
71039;SHT30;58692;43.212;27.908;2024-02-26T02:45:27;10.29;84.77
71039;SHT30;58692;43.212;27.908;2024-02-26T02:47:53;10.31;84.69
71039;SHT30;58692;43.212;27.908;2024-02-26T02:50:18;10.32;84.63
71039;SHT30;58692;43.212;27.908;2024-02-26T02:52:44;10.28;84.49
71039;SHT30;58692;43.212;27.908;2024-02-26T02:55:10;10.32;84.53
71039;SHT30;58692;43.212;27.908;2024-02-26T02:57:36;10.36;84.42
71039;SHT30;58692;43.212;27.908;2024-02-26T03:00:07;10.38;84.15
71039;SHT30;58692;43.212;27.908;2024-02-26T03:02:33;10.29;84.30
71039;SHT30;58692;43.212;27.908;2024-02-26T03:05:02;10.29;84.27
71039;SHT30;58692;43.212;27.908;2024-02-26T03:07:28;10.29;84.31
71039;SHT30;58692;43.212;27.908;2024-02-26T03:09:53;10.25;84.59
71039;SHT30;58692;43.212;27.908;2024-02-26T03:12:19;10.26;84.61
71039;SHT30;58692;43.212;27.908;2024-02-26T03:14:44;10.25;84.54
71039;SHT30;58692;43.212;27.908;2024-02-26T03:17:10;10.22;84.61
71039;SHT30;58692;43.212;27.908;2024-02-26T03:19:35;10.18;84.77
71039;SHT30;58692;43.212;27.908;2024-02-26T03:22:01;10.23;84.94
71039;SHT30;58692;43.212;27.908;2024-02-26T03:24:27;10.26;84.79
71039;SHT30;58692;43.212;27.908;2024-02-26T03:26:53;10.18;85.03
71039;SHT30;58692;43.212;27.908;2024-02-26T03:29:19;10.23;85.20
71039;SHT30;58692;43.212;27.908;2024-02-26T03:31:44;10.22;85.50
71039;SHT30;58692;43.212;27.908;2024-02-26T03:34:10;10.15;85.92
71039;SHT30;58692;43.212;27.908;2024-02-26T03:36:38;10.12;86.14
71039;SHT30;58692;43.212;27.908;2024-02-26T03:39:03;10.11;86.40
71039;SHT30;58692;43.212;27.908;2024-02-26T03:41:34;10.05;86.49
71039;SHT30;58692;43.212;27.908;2024-02-26T03:44:00;10.03;86.72
71039;SHT30;58692;43.212;27.908;2024-02-26T03:46:26;10.08;86.75
71039;SHT30;58692;43.212;27.908;2024-02-26T03:48:51;10.08;86.84
71039;SHT30;58692;43.212;27.908;2024-02-26T03:51:17;10.11;86.77
71039;SHT30;58692;43.212;27.908;2024-02-26T03:53:42;10.08;86.88
71039;SHT30;58692;43.212;27.908;2024-02-26T03:56:08;10.05;86.94
71039;SHT30;58692;43.212;27.908;2024-02-26T03:58:36;10.06;87.45
71039;SHT30;58692;43.212;27.908;2024-02-26T04:01:02;10.02;87.73
71039;SHT30;58692;43.212;27.908;2024-02-26T04:03:27;10.08;87.80
71039;SHT30;58692;43.212;27.908;2024-02-26T04:05:53;10.03;88.18
71039;SHT30;58692;43.212;27.908;2024-02-26T04:08:19;9.98;88.40
71039;SHT30;58692;43.212;27.908;2024-02-26T04:10:44;9.99;88.36
71039;SHT30;58692;43.212;27.908;2024-02-26T04:13:10;9.97;88.60
71039;SHT30;58692;43.212;27.908;2024-02-26T04:15:35;9.95;88.88
71039;SHT30;58692;43.212;27.908;2024-02-26T04:18:01;10.02;88.74
71039;SHT30;58692;43.212;27.908;2024-02-26T04:20:27;9.95;88.87
71039;SHT30;58692;43.212;27.908;2024-02-26T04:22:53;9.91;89.03
71039;SHT30;58692;43.212;27.908;2024-02-26T04:25:19;9.95;88.98
71039;SHT30;58692;43.212;27.908;2024-02-26T04:27:44;9.90;89.08
71039;SHT30;58692;43.212;27.908;2024-02-26T04:30:10;9.91;89.01
71039;SHT30;58692;43.212;27.908;2024-02-26T04:32:36;9.88;89.22
71039;SHT30;58692;43.212;27.908;2024-02-26T04:35:02;9.88;89.17
71039;SHT30;58692;43.212;27.908;2024-02-26T04:37:28;9.87;89.15
71039;SHT30;58692;43.212;27.908;2024-02-26T04:39:59;9.90;89.19
71039;SHT30;58692;43.212;27.908;2024-02-26T04:42:25;9.90;89.24
71039;SHT30;58692;43.212;27.908;2024-02-26T04:44:51;9.91;89.19
71039;SHT30;58692;43.212;27.908;2024-02-26T04:47:16;9.90;89.06
71039;SHT30;58692;43.212;27.908;2024-02-26T04:49:42;9.94;89.08
71039;SHT30;58692;43.212;27.908;2024-02-26T04:52:07;9.97;88.96
71039;SHT30;58692;43.212;27.908;2024-02-26T04:54:33;9.97;88.85
71039;SHT30;58692;43.212;27.908;2024-02-26T04:56:59;9.98;88.89
71039;SHT30;58692;43.212;27.908;2024-02-26T04:59:24;9.99;89.11
71039;SHT30;58692;43.212;27.908;2024-02-26T05:01:50;9.97;89.13
71039;SHT30;58692;43.212;27.908;2024-02-26T05:04:17;9.98;89.06
71039;SHT30;58692;43.212;27.908;2024-02-26T05:06:43;10.05;89.08
71039;SHT30;58692;43.212;27.908;2024-02-26T05:09:09;9.99;89.28
71039;SHT30;58692;43.212;27.908;2024-02-26T05:11:34;10.13;89.06
71039;SHT30;58692;43.212;27.908;2024-02-26T05:14:00;10.15;88.88
71039;SHT30;58692;43.212;27.908;2024-02-26T05:16:26;10.19;88.94
71039;SHT30;58692;43.212;27.908;2024-02-26T05:18:53;10.15;88.87
71039;SHT30;58692;43.212;27.908;2024-02-26T05:21:18;10.19;88.86
71039;SHT30;58692;43.212;27.908;2024-02-26T05:23:44;10.23;88.71
71039;SHT30;58692;43.212;27.908;2024-02-26T05:26:10;10.25;88.85
71039;SHT30;58692;43.212;27.908;2024-02-26T05:28:36;10.26;88.53
71039;SHT30;58692;43.212;27.908;2024-02-26T05:31:05;10.31;88.40
71039;SHT30;58692;43.212;27.908;2024-02-26T05:33:31;10.33;88.28
71039;SHT30;58692;43.212;27.908;2024-02-26T05:35:56;10.41;88.10
71039;SHT30;58692;43.212;27.908;2024-02-26T05:38:22;10.46;87.79
71039;SHT30;58692;43.212;27.908;2024-02-26T05:40:47;10.45;87.67
71039;SHT30;58692;43.212;27.908;2024-02-26T05:43:14;10.59;87.46
71039;SHT30;58692;43.212;27.908;2024-02-26T05:45:41;10.77;87.14
71039;SHT30;58692;43.212;27.908;2024-02-26T05:48:06;10.79;86.93
71039;SHT30;58692;43.212;27.908;2024-02-26T05:50:32;10.76;87.02
71039;SHT30;58692;43.212;27.908;2024-02-26T05:52:58;10.89;87.03
71039;SHT30;58692;43.212;27.908;2024-02-26T05:55:23;10.93;86.86
71039;SHT30;58692;43.212;27.908;2024-02-26T05:57:49;10.94;86.97
71039;SHT30;58692;43.212;27.908;2024-02-26T06:00:15;10.96;86.99
71039;SHT30;58692;43.212;27.908;2024-02-26T06:02:41;10.93;87.11
71039;SHT30;58692;43.212;27.908;2024-02-26T06:05:07;11.01;86.98
71039;SHT30;58692;43.212;27.908;2024-02-26T06:07:34;11.26;86.48
71039;SHT30;58692;43.212;27.908;2024-02-26T06:10:00;11.54;85.68
71039;SHT30;58692;43.212;27.908;2024-02-26T06:12:26;11.69;85.18
71039;SHT30;58692;43.212;27.908;2024-02-26T06:14:54;11.52;85.68
71039;SHT30;58692;43.212;27.908;2024-02-26T06:17:19;11.39;85.99
71039;SHT30;58692;43.212;27.908;2024-02-26T06:19:45;11.72;85.02
71039;SHT30;58692;43.212;27.908;2024-02-26T06:22:11;11.88;84.81
71039;SHT30;58692;43.212;27.908;2024-02-26T06:24:40;12.20;84.20
71039;SHT30;58692;43.212;27.908;2024-02-26T06:27:05;12.20;83.64
71039;SHT30;58692;43.212;27.908;2024-02-26T06:29:31;12.26;83.21
71039;SHT30;58692;43.212;27.908;2024-02-26T06:31:57;12.10;83.98
71039;SHT30;58692;43.212;27.908;2024-02-26T06:34:22;12.18;83.92
71039;SHT30;58692;43.212;27.908;2024-02-26T06:36:48;12.13;83.73
71039;SHT30;58692;43.212;27.908;2024-02-26T06:39:14;12.19;84.02
71039;SHT30;58692;43.212;27.908;2024-02-26T06:41:41;12.23;83.48
71039;SHT30;58692;43.212;27.908;2024-02-26T06:44:07;12.50;83.15
71039;SHT30;58692;43.212;27.908;2024-02-26T06:46:32;12.63;82.13
71039;SHT30;58692;43.212;27.908;2024-02-26T06:48:58;12.71;82.06
71039;SHT30;58692;43.212;27.908;2024-02-26T06:51:23;12.43;82.75
71039;SHT30;58692;43.212;27.908;2024-02-26T06:53:49;12.40;82.82
71039;SHT30;58692;43.212;27.908;2024-02-26T06:56:15;12.39;83.16
71039;SHT30;58692;43.212;27.908;2024-02-26T06:58:40;12.73;82.32
71039;SHT30;58692;43.212;27.908;2024-02-26T07:01:06;12.94;81.43
71039;SHT30;58692;43.212;27.908;2024-02-26T07:03:34;13.44;80.15
71039;SHT30;58692;43.212;27.908;2024-02-26T07:06:02;13.79;78.51
71039;SHT30;58692;43.212;27.908;2024-02-26T07:08:28;14.05;77.74
71039;SHT30;58692;43.212;27.908;2024-02-26T07:10:54;13.97;77.78
71039;SHT30;58692;43.212;27.908;2024-02-26T07:13:22;14.54;76.57
71039;SHT30;58692;43.212;27.908;2024-02-26T07:15:48;14.34;76.42
71039;SHT30;58692;43.212;27.908;2024-02-26T07:18:14;14.48;76.13
71039;SHT30;58692;43.212;27.908;2024-02-26T07:20:40;14.09;76.85
71039;SHT30;58692;43.212;27.908;2024-02-26T07:23:05;13.91;77.09
71039;SHT30;58692;43.212;27.908;2024-02-26T07:25:32;14.12;76.82
71039;SHT30;58692;43.212;27.908;2024-02-26T07:27:57;14.24;76.39
71039;SHT30;58692;43.212;27.908;2024-02-26T07:30:23;13.79;77.72
71039;SHT30;58692;43.212;27.908;2024-02-26T07:32:50;13.54;78.27
71039;SHT30;58692;43.212;27.908;2024-02-26T07:35:16;13.70;78.07
71039;SHT30;58692;43.212;27.908;2024-02-26T07:37:43;13.79;77.46
71039;SHT30;58692;43.212;27.908;2024-02-26T07:40:09;14.20;76.41
71039;SHT30;58692;43.212;27.908;2024-02-26T07:42:37;14.37;75.70
71039;SHT30;58692;43.212;27.908;2024-02-26T07:45:05;13.99;76.36
71039;SHT30;58692;43.212;27.908;2024-02-26T07:47:30;14.31;75.18
71039;SHT30;58692;43.212;27.908;2024-02-26T07:49:56;14.44;75.36
71039;SHT30;58692;43.212;27.908;2024-02-26T07:52:22;14.98;74.24
71039;SHT30;58692;43.212;27.908;2024-02-26T07:54:48;15.09;72.94
71039;SHT30;58692;43.212;27.908;2024-02-26T07:57:14;14.92;73.24
71039;SHT30;58692;43.212;27.908;2024-02-26T07:59:42;14.92;73.45
71039;SHT30;58692;43.212;27.908;2024-02-26T08:02:10;14.93;73.70
71039;SHT30;58692;43.212;27.908;2024-02-26T08:04:36;15.02;72.60
71039;SHT30;58692;43.212;27.908;2024-02-26T08:07:02;14.88;73.10
71039;SHT30;58692;43.212;27.908;2024-02-26T08:09:28;15.03;72.37
71039;SHT30;58692;43.212;27.908;2024-02-26T08:11:54;14.65;74.12
71039;SHT30;58692;43.212;27.908;2024-02-26T08:14:20;14.47;74.17
71039;SHT30;58692;43.212;27.908;2024-02-26T08:16:49;14.05;75.54
71039;SHT30;58692;43.212;27.908;2024-02-26T08:19:15;14.82;73.79
71039;SHT30;58692;43.212;27.908;2024-02-26T08:21:41;15.02;72.92
71039;SHT30;58692;43.212;27.908;2024-02-26T08:24:07;15.33;72.25
71039;SHT30;58692;43.212;27.908;2024-02-26T08:26:33;15.08;72.35
71039;SHT30;58692;43.212;27.908;2024-02-26T08:28:58;14.54;74.27
71039;SHT30;58692;43.212;27.908;2024-02-26T08:31:25;14.10;75.36
71039;SHT30;58692;43.212;27.908;2024-02-26T08:33:56;13.75;76.78
71039;SHT30;58692;43.212;27.908;2024-02-26T08:36:21;14.50;75.00
71039;SHT30;58692;43.212;27.908;2024-02-26T08:38:48;14.13;75.83
71039;SHT30;58692;43.212;27.908;2024-02-26T08:41:13;14.16;76.03
71039;SHT30;58692;43.212;27.908;2024-02-26T08:43:39;14.65;74.09
71039;SHT30;58692;43.212;27.908;2024-02-26T08:46:08;14.65;74.02
71039;SHT30;58692;43.212;27.908;2024-02-26T08:48:35;14.71;74.04
71039;SHT30;58692;43.212;27.908;2024-02-26T08:51:05;14.27;74.74
71039;SHT30;58692;43.212;27.908;2024-02-26T08:53:32;14.34;74.18
71039;SHT30;58692;43.212;27.908;2024-02-26T08:55:57;14.31;74.03
71039;SHT30;58692;43.212;27.908;2024-02-26T08:58:23;14.03;75.23
71039;SHT30;58692;43.212;27.908;2024-02-26T09:00:49;14.16;75.18
71039;SHT30;58692;43.212;27.908;2024-02-26T09:03:14;14.37;75.12
71039;SHT30;58692;43.212;27.908;2024-02-26T09:05:40;14.37;74.70
71039;SHT30;58692;43.212;27.908;2024-02-26T09:08:06;14.26;75.08
71039;SHT30;58692;43.212;27.908;2024-02-26T09:10:32;14.61;73.57
71039;SHT30;58692;43.212;27.908;2024-02-26T09:12:58;14.98;72.27
71039;SHT30;58692;43.212;27.908;2024-02-26T09:15:24;14.93;72.70
71039;SHT30;58692;43.212;27.908;2024-02-26T09:17:49;14.96;72.64
71039;SHT30;58692;43.212;27.908;2024-02-26T09:20:16;15.46;71.49
71039;SHT30;58692;43.212;27.908;2024-02-26T09:22:46;15.03;72.46
71039;SHT30;58692;43.212;27.908;2024-02-26T09:25:13;15.63;71.21
71039;SHT30;58692;43.212;27.908;2024-02-26T09:27:39;16.15;69.80
71039;SHT30;58692;43.212;27.908;2024-02-26T09:30:05;16.27;69.07
71039;SHT30;58692;43.212;27.908;2024-02-26T09:32:32;16.41;69.25
71039;SHT30;58692;43.212;27.908;2024-02-26T09:34:59;15.70;69.93
71039;SHT30;58692;43.212;27.908;2024-02-26T09:37:27;15.60;70.32
71039;SHT30;58692;43.212;27.908;2024-02-26T09:39:52;15.87;70.08
71039;SHT30;58692;43.212;27.908;2024-02-26T09:42:19;15.67;69.62
71039;SHT30;58692;43.212;27.908;2024-02-26T09:44:45;15.62;70.20
71039;SHT30;58692;43.212;27.908;2024-02-26T09:47:14;15.59;71.01
71039;SHT30;58692;43.212;27.908;2024-02-26T09:49:42;14.89;71.44
71039;SHT30;58692;43.212;27.908;2024-02-26T09:52:08;15.21;71.85
71039;SHT30;58692;43.212;27.908;2024-02-26T09:54:35;14.91;72.26
71039;SHT30;58692;43.212;27.908;2024-02-26T09:57:03;15.39;71.22
71039;SHT30;58692;43.212;27.908;2024-02-26T09:59:35;15.57;70.72
71039;SHT30;58692;43.212;27.908;2024-02-26T10:02:04;15.33;71.04
71039;SHT30;58692;43.212;27.908;2024-02-26T10:04:31;15.42;70.80
71039;SHT30;58692;43.212;27.908;2024-02-26T10:06:57;15.62;70.33
71039;SHT30;58692;43.212;27.908;2024-02-26T10:09:25;15.05;71.35
71039;SHT30;58692;43.212;27.908;2024-02-26T10:11:51;15.25;71.07
71039;SHT30;58692;43.212;27.908;2024-02-26T10:14:17;15.08;71.42
71039;SHT30;58692;43.212;27.908;2024-02-26T10:16:43;14.87;72.34
71039;SHT30;58692;43.212;27.908;2024-02-26T10:19:08;15.29;71.60
71039;SHT30;58692;43.212;27.908;2024-02-26T10:21:36;15.31;71.10
71039;SHT30;58692;43.212;27.908;2024-02-26T10:24:02;14.87;72.46
71039;SHT30;58692;43.212;27.908;2024-02-26T10:26:27;15.21;71.72
71039;SHT30;58692;43.212;27.908;2024-02-26T10:28:53;15.31;71.13
71039;SHT30;58692;43.212;27.908;2024-02-26T10:34:23;15.33;71.36
71039;SHT30;58692;43.212;27.908;2024-02-26T10:36:50;15.70;70.37
71039;SHT30;58692;43.212;27.908;2024-02-26T10:39:16;16.04;69.58
71039;SHT30;58692;43.212;27.908;2024-02-26T10:41:43;15.98;68.77
71039;SHT30;58692;43.212;27.908;2024-02-26T10:44:10;16.40;68.24
71039;SHT30;58692;43.212;27.908;2024-02-26T10:46:38;16.52;67.63
71039;SHT30;58692;43.212;27.908;2024-02-26T10:49:04;15.74;69.23
71039;SHT30;58692;43.212;27.908;2024-02-26T10:51:31;15.66;69.47
71039;SHT30;58692;43.212;27.908;2024-02-26T10:53:59;15.98;68.65
71039;SHT30;58692;43.212;27.908;2024-02-26T10:56:28;16.22;67.95
71039;SHT30;58692;43.212;27.908;2024-02-26T10:58:55;15.73;69.21
71039;SHT30;58692;43.212;27.908;2024-02-26T11:01:22;16.00;68.29
71039;SHT30;58692;43.212;27.908;2024-02-26T11:03:50;16.29;67.52
71039;SHT30;58692;43.212;27.908;2024-02-26T11:06:16;16.55;67.09
71039;SHT30;58692;43.212;27.908;2024-02-26T11:08:43;16.31;67.33
71039;SHT30;58692;43.212;27.908;2024-02-26T11:11:09;16.21;67.45
71039;SHT30;58692;43.212;27.908;2024-02-26T11:13:38;15.98;67.67
71039;SHT30;58692;43.212;27.908;2024-02-26T11:16:06;15.89;68.53
71039;SHT30;58692;43.212;27.908;2024-02-26T11:18:34;15.53;69.79
71039;SHT30;58692;43.212;27.908;2024-02-26T11:21:01;15.53;70.00
71039;SHT30;58692;43.212;27.908;2024-02-26T11:23:34;15.15;70.41
71039;SHT30;58692;43.212;27.908;2024-02-26T11:26:04;15.11;70.99
71039;SHT30;58692;43.212;27.908;2024-02-26T11:28:32;14.72;71.72
71039;SHT30;58692;43.212;27.908;2024-02-26T11:30:59;14.93;71.17
71039;SHT30;58692;43.212;27.908;2024-02-26T11:33:26;14.81;70.81
71039;SHT30;58692;43.212;27.908;2024-02-26T11:35:53;15.47;69.85
71039;SHT30;58692;43.212;27.908;2024-02-26T11:38:21;15.16;70.80
71039;SHT30;58692;43.212;27.908;2024-02-26T11:40:47;15.66;69.61
71039;SHT30;58692;43.212;27.908;2024-02-26T11:43:14;15.39;69.18
71039;SHT30;58692;43.212;27.908;2024-02-26T11:48:13;15.33;70.16
71039;SHT30;58692;43.212;27.908;2024-02-26T11:50:40;15.80;68.78
71039;SHT30;58692;43.212;27.908;2024-02-26T11:58:31;16.00;68.15
71039;SHT30;58692;43.212;27.908;2024-02-26T12:00:59;15.44;68.93
71039;SHT30;58692;43.212;27.908;2024-02-26T12:03:25;15.82;68.41
71039;SHT30;58692;43.212;27.908;2024-02-26T12:05:51;15.84;68.66
71039;SHT30;58692;43.212;27.908;2024-02-26T12:08:17;15.36;69.40
71039;SHT30;58692;43.212;27.908;2024-02-26T12:10:48;15.32;70.09
71039;SHT30;58692;43.212;27.908;2024-02-26T12:13:15;15.16;70.39
71039;SHT30;58692;43.212;27.908;2024-02-26T12:15:45;15.29;69.45
71039;SHT30;58692;43.212;27.908;2024-02-26T12:18:18;15.60;69.12
71039;SHT30;58692;43.212;27.908;2024-02-26T12:20:45;15.25;70.34
71039;SHT30;58692;43.212;27.908;2024-02-26T12:23:16;15.44;70.05
71039;SHT30;58692;43.212;27.908;2024-02-26T12:25:44;15.40;69.37
71039;SHT30;58692;43.212;27.908;2024-02-26T12:28:10;15.21;70.20
71039;SHT30;58692;43.212;27.908;2024-02-26T12:30:36;15.05;71.09
71039;SHT30;58692;43.212;27.908;2024-02-26T12:33:02;14.98;70.79
71039;SHT30;58692;43.212;27.908;2024-02-26T12:35:28;14.84;71.23
71039;SHT30;58692;43.212;27.908;2024-02-26T12:37:57;14.60;72.28
71039;SHT30;58692;43.212;27.908;2024-02-26T12:40:23;14.74;72.10
71039;SHT30;58692;43.212;27.908;2024-02-26T12:42:49;14.61;72.57
71039;SHT30;58692;43.212;27.908;2024-02-26T12:45:15;14.74;71.90
71039;SHT30;58692;43.212;27.908;2024-02-26T12:47:45;14.72;72.07
71039;SHT30;58692;43.212;27.908;2024-02-26T12:50:11;14.84;72.02
71039;SHT30;58692;43.212;27.908;2024-02-26T12:52:42;14.47;72.88
71039;SHT30;58692;43.212;27.908;2024-02-26T12:55:08;13.83;74.37
71039;SHT30;58692;43.212;27.908;2024-02-26T12:57:38;14.03;74.36
71039;SHT30;58692;43.212;27.908;2024-02-26T13:00:05;14.02;74.33
71039;SHT30;58692;43.212;27.908;2024-02-26T13:02:35;13.89;75.00
71039;SHT30;58692;43.212;27.908;2024-02-26T13:05:03;13.67;75.68
71039;SHT30;58692;43.212;27.908;2024-02-26T13:07:33;13.66;76.15
71039;SHT30;58692;43.212;27.908;2024-02-26T13:09:59;13.01;78.02
71039;SHT30;58692;43.212;27.908;2024-02-26T13:12:29;12.94;78.42
71039;SHT30;58692;43.212;27.908;2024-02-26T13:15:00;12.76;79.07
71039;SHT30;58692;43.212;27.908;2024-02-26T13:17:25;12.33;80.37
71039;SHT30;58692;43.212;27.908;2024-02-26T13:19:54;12.16;81.14
71039;SHT30;58692;43.212;27.908;2024-02-26T13:22:21;11.78;82.59
71039;SHT30;58692;43.212;27.908;2024-02-26T13:25:03;11.50;83.40
71039;SHT30;58692;43.212;27.908;2024-02-26T13:27:29;11.71;83.03
71039;SHT30;58692;43.212;27.908;2024-02-26T13:30:04;11.71;83.16
71039;SHT30;58692;43.212;27.908;2024-02-26T13:32:34;11.57;83.18
71039;SHT30;58692;43.212;27.908;2024-02-26T13:35:06;11.48;83.60
71039;SHT30;58692;43.212;27.908;2024-02-26T13:37:38;11.52;83.49
71039;SHT30;58692;43.212;27.908;2024-02-26T13:40:12;11.55;83.52
71039;SHT30;58692;43.212;27.908;2024-02-26T13:42:46;11.50;83.69
71039;SHT30;58692;43.212;27.908;2024-02-26T13:45:13;11.37;83.89
71039;SHT30;58692;43.212;27.908;2024-02-26T13:47:39;11.37;83.81
71039;SHT30;58692;43.212;27.908;2024-02-26T13:50:06;11.41;83.76
71039;SHT30;58692;43.212;27.908;2024-02-26T13:52:31;11.54;83.25
71039;SHT30;58692;43.212;27.908;2024-02-26T13:55:00;11.39;83.48
71039;SHT30;58692;43.212;27.908;2024-02-26T13:57:27;11.51;83.17
71039;SHT30;58692;43.212;27.908;2024-02-26T13:59:54;11.52;83.28
71039;SHT30;58692;43.212;27.908;2024-02-26T14:02:19;11.48;83.27
71039;SHT30;58692;43.212;27.908;2024-02-26T14:04:46;11.52;83.33
71039;SHT30;58692;43.212;27.908;2024-02-26T14:07:13;11.58;83.06
71039;SHT30;58692;43.212;27.908;2024-02-26T14:09:41;11.50;83.21
71039;SHT30;58692;43.212;27.908;2024-02-26T14:12:06;11.64;83.08
71039;SHT30;58692;43.212;27.908;2024-02-26T14:14:32;11.75;82.61
71039;SHT30;58692;43.212;27.908;2024-02-26T14:17:01;11.52;83.08
71039;SHT30;58692;43.212;27.908;2024-02-26T14:19:28;11.58;82.96
71039;SHT30;58692;43.212;27.908;2024-02-26T14:21:54;11.44;83.04
71039;SHT30;58692;43.212;27.908;2024-02-26T14:24:20;11.45;83.12
71039;SHT30;58692;43.212;27.908;2024-02-26T14:26:45;11.35;83.63
71039;SHT30;58692;43.212;27.908;2024-02-26T14:29:11;11.32;83.72
71039;SHT30;58692;43.212;27.908;2024-02-26T14:31:37;11.37;83.55
71039;SHT30;58692;43.212;27.908;2024-02-26T14:34:07;11.38;83.59
71039;SHT30;58692;43.212;27.908;2024-02-26T14:36:36;11.34;83.56
71039;SHT30;58692;43.212;27.908;2024-02-26T14:39:04;11.32;83.50
71039;SHT30;58692;43.212;27.908;2024-02-26T14:41:30;11.21;83.75
71039;SHT30;58692;43.212;27.908;2024-02-26T14:43:55;11.20;84.13
71039;SHT30;58692;43.212;27.908;2024-02-26T14:46:21;11.21;83.98
71039;SHT30;58692;43.212;27.908;2024-02-26T14:48:47;11.17;84.20
71039;SHT30;58692;43.212;27.908;2024-02-26T14:53:53;10.92;84.92
71039;SHT30;58692;43.212;27.908;2024-02-26T14:56:18;10.87;85.05
71039;SHT30;58692;43.212;27.908;2024-02-26T14:58:44;10.66;85.47
71039;SHT30;58692;43.212;27.908;2024-02-26T15:01:47;10.59;85.76
71039;SHT30;58692;43.212;27.908;2024-02-26T15:04:42;10.63;85.88
71039;SHT30;58692;43.212;27.908;2024-02-26T15:07:09;10.56;86.06
71039;SHT30;58692;43.212;27.908;2024-02-26T15:09:38;10.53;86.21
71039;SHT30;58692;43.212;27.908;2024-02-26T15:12:06;10.62;85.85
71039;SHT30;58692;43.212;27.908;2024-02-26T15:14:33;10.70;85.72
71039;SHT30;58692;43.212;27.908;2024-02-26T15:17:00;10.57;85.88
71039;SHT30;58692;43.212;27.908;2024-02-26T15:19:26;10.62;85.90
71039;SHT30;58692;43.212;27.908;2024-02-26T15:21:52;10.46;86.03
71039;SHT30;58692;43.212;27.908;2024-02-26T15:24:18;10.59;86.14
71039;SHT30;58692;43.212;27.908;2024-02-26T15:26:46;10.62;85.85
71039;SHT30;58692;43.212;27.908;2024-02-26T15:29:12;10.70;85.71